sensor_id;sensor_type;location;lat;lon;timestamp;P1;durP1;ratioP1;P2;durP2;ratioP2
72427;SDS011;60419;48.880;18.036;2023-07-31T00:02:15;6.65;;;3.95;;
72427;SDS011;60419;48.880;18.036;2023-07-31T00:05:01;8.90;;;4.50;;
72427;SDS011;60419;48.880;18.036;2023-07-31T00:07:46;9.75;;;4.70;;
72427;SDS011;60419;48.880;18.036;2023-07-31T00:10:32;8.02;;;4.65;;
72427;SDS011;60419;48.880;18.036;2023-07-31T00:13:18;7.53;;;4.32;;
72427;SDS011;60419;48.880;18.036;2023-07-31T00:16:04;8.02;;;4.43;;
72427;SDS011;60419;48.880;18.036;2023-07-31T00:18:49;9.63;;;4.90;;
72427;SDS011;60419;48.880;18.036;2023-07-31T00:21:34;8.50;;;5.00;;
72427;SDS011;60419;48.880;18.036;2023-07-31T00:24:21;8.82;;;5.38;;
72427;SDS011;60419;48.880;18.036;2023-07-31T00:27:06;13.98;;;5.00;;
72427;SDS011;60419;48.880;18.036;2023-07-31T00:29:52;11.75;;;4.55;;
72427;SDS011;60419;48.880;18.036;2023-07-31T00:32:37;9.75;;;5.68;;
72427;SDS011;60419;48.880;18.036;2023-07-31T00:35:22;8.82;;;6.18;;
72427;SDS011;60419;48.880;18.036;2023-07-31T00:38:08;9.32;;;5.57;;
72427;SDS011;60419;48.880;18.036;2023-07-31T00:40:53;10.00;;;5.65;;
72427;SDS011;60419;48.880;18.036;2023-07-31T00:43:38;7.13;;;5.70;;
72427;SDS011;60419;48.880;18.036;2023-07-31T00:46:24;8.70;;;4.78;;
72427;SDS011;60419;48.880;18.036;2023-07-31T00:49:09;11.00;;;4.85;;
72427;SDS011;60419;48.880;18.036;2023-07-31T00:51:56;8.68;;;4.55;;
72427;SDS011;60419;48.880;18.036;2023-07-31T00:54:42;7.53;;;3.90;;
72427;SDS011;60419;48.880;18.036;2023-07-31T00:57:28;7.05;;;3.80;;
72427;SDS011;60419;48.880;18.036;2023-07-31T01:00:14;5.28;;;3.00;;
72427;SDS011;60419;48.880;18.036;2023-07-31T01:02:59;8.82;;;4.53;;
72427;SDS011;60419;48.880;18.036;2023-07-31T01:09:06;10.48;;;4.60;;
72427;SDS011;60419;48.880;18.036;2023-07-31T01:12:00;11.43;;;4.47;;
72427;SDS011;60419;48.880;18.036;2023-07-31T01:15:30;6.90;;;4.30;;
72427;SDS011;60419;48.880;18.036;2023-07-31T01:17:56;11.63;;;4.82;;
72427;SDS011;60419;48.880;18.036;2023-07-31T01:20:42;6.30;;;4.18;;
72427;SDS011;60419;48.880;18.036;2023-07-31T01:26:33;11.25;;;4.15;;
72427;SDS011;60419;48.880;18.036;2023-07-31T01:32:10;4.72;;;2.90;;
72427;SDS011;60419;48.880;18.036;2023-07-31T01:34:57;5.22;;;3.40;;
72427;SDS011;60419;48.880;18.036;2023-07-31T01:37:45;6.32;;;3.15;;
72427;SDS011;60419;48.880;18.036;2023-07-31T01:40:31;6.55;;;3.80;;
72427;SDS011;60419;48.880;18.036;2023-07-31T01:43:16;7.35;;;3.80;;
72427;SDS011;60419;48.880;18.036;2023-07-31T01:46:02;4.90;;;2.97;;
72427;SDS011;60419;48.880;18.036;2023-07-31T01:48:48;5.55;;;3.35;;
72427;SDS011;60419;48.880;18.036;2023-07-31T01:51:33;6.07;;;4.22;;
72427;SDS011;60419;48.880;18.036;2023-07-31T01:54:21;6.82;;;4.93;;
72427;SDS011;60419;48.880;18.036;2023-07-31T01:57:07;6.35;;;4.20;;
72427;SDS011;60419;48.880;18.036;2023-07-31T01:59:52;10.23;;;4.40;;
72427;SDS011;60419;48.880;18.036;2023-07-31T02:02:38;10.65;;;4.93;;
72427;SDS011;60419;48.880;18.036;2023-07-31T02:05:23;7.97;;;4.50;;
72427;SDS011;60419;48.880;18.036;2023-07-31T02:08:09;8.15;;;4.65;;
72427;SDS011;60419;48.880;18.036;2023-07-31T02:10:54;10.07;;;5.15;;
72427;SDS011;60419;48.880;18.036;2023-07-31T02:13:39;10.07;;;4.82;;
72427;SDS011;60419;48.880;18.036;2023-07-31T02:16:25;9.68;;;4.60;;
72427;SDS011;60419;48.880;18.036;2023-07-31T02:19:10;7.25;;;4.80;;
72427;SDS011;60419;48.880;18.036;2023-07-31T02:21:55;11.48;;;5.68;;
72427;SDS011;60419;48.880;18.036;2023-07-31T02:24:41;9.40;;;6.40;;
72427;SDS011;60419;48.880;18.036;2023-07-31T02:27:26;7.60;;;5.93;;
72427;SDS011;60419;48.880;18.036;2023-07-31T02:30:12;6.85;;;2.90;;
72427;SDS011;60419;48.880;18.036;2023-07-31T02:32:58;8.90;;;5.65;;
72427;SDS011;60419;48.880;18.036;2023-07-31T02:35:43;6.80;;;4.57;;
72427;SDS011;60419;48.880;18.036;2023-07-31T02:38:28;8.35;;;4.75;;
72427;SDS011;60419;48.880;18.036;2023-07-31T02:41:14;7.13;;;3.33;;
72427;SDS011;60419;48.880;18.036;2023-07-31T02:43:59;4.30;;;3.08;;
72427;SDS011;60419;48.880;18.036;2023-07-31T02:46:44;4.63;;;2.10;;
72427;SDS011;60419;48.880;18.036;2023-07-31T02:49:30;5.28;;;3.45;;
72427;SDS011;60419;48.880;18.036;2023-07-31T02:52:15;4.03;;;2.35;;
72427;SDS011;60419;48.880;18.036;2023-07-31T02:55:00;4.57;;;2.60;;
72427;SDS011;60419;48.880;18.036;2023-07-31T02:57:46;7.30;;;3.95;;
72427;SDS011;60419;48.880;18.036;2023-07-31T03:00:32;6.18;;;3.97;;
72427;SDS011;60419;48.880;18.036;2023-07-31T03:03:17;6.75;;;3.65;;
72427;SDS011;60419;48.880;18.036;2023-07-31T03:06:03;6.00;;;3.47;;
72427;SDS011;60419;48.880;18.036;2023-07-31T03:08:48;6.05;;;3.35;;
72427;SDS011;60419;48.880;18.036;2023-07-31T03:11:34;7.30;;;3.80;;
72427;SDS011;60419;48.880;18.036;2023-07-31T03:14:19;6.05;;;3.33;;
72427;SDS011;60419;48.880;18.036;2023-07-31T03:17:04;6.68;;;3.88;;
72427;SDS011;60419;48.880;18.036;2023-07-31T03:19:50;5.80;;;3.20;;
72427;SDS011;60419;48.880;18.036;2023-07-31T03:22:35;6.68;;;3.03;;
72427;SDS011;60419;48.880;18.036;2023-07-31T03:25:20;8.02;;;2.50;;
72427;SDS011;60419;48.880;18.036;2023-07-31T03:28:06;3.97;;;2.50;;
72427;SDS011;60419;48.880;18.036;2023-07-31T03:30:52;5.22;;;2.63;;
72427;SDS011;60419;48.880;18.036;2023-07-31T03:33:37;5.00;;;2.90;;
72427;SDS011;60419;48.880;18.036;2023-07-31T03:36:23;6.95;;;3.00;;
72427;SDS011;60419;48.880;18.036;2023-07-31T03:39:08;6.63;;;3.03;;
72427;SDS011;60419;48.880;18.036;2023-07-31T03:41:54;6.22;;;2.75;;
72427;SDS011;60419;48.880;18.036;2023-07-31T03:44:39;5.97;;;3.00;;
72427;SDS011;60419;48.880;18.036;2023-07-31T03:47:24;5.68;;;2.67;;
72427;SDS011;60419;48.880;18.036;2023-07-31T03:50:10;5.90;;;3.22;;
72427;SDS011;60419;48.880;18.036;2023-07-31T03:52:55;6.07;;;3.00;;
72427;SDS011;60419;48.880;18.036;2023-07-31T03:55:40;6.75;;;3.10;;
72427;SDS011;60419;48.880;18.036;2023-07-31T03:58:26;5.43;;;2.72;;
72427;SDS011;60419;48.880;18.036;2023-07-31T04:01:11;3.53;;;1.80;;
72427;SDS011;60419;48.880;18.036;2023-07-31T04:03:57;4.85;;;2.60;;
72427;SDS011;60419;48.880;18.036;2023-07-31T04:06:42;3.88;;;2.22;;
72427;SDS011;60419;48.880;18.036;2023-07-31T04:09:27;6.05;;;2.65;;
72427;SDS011;60419;48.880;18.036;2023-07-31T04:12:13;4.63;;;2.50;;
72427;SDS011;60419;48.880;18.036;2023-07-31T04:14:58;4.65;;;2.53;;
72427;SDS011;60419;48.880;18.036;2023-07-31T04:17:43;8.88;;;2.78;;
72427;SDS011;60419;48.880;18.036;2023-07-31T04:20:29;6.85;;;2.92;;
72427;SDS011;60419;48.880;18.036;2023-07-31T04:23:14;4.05;;;2.20;;
72427;SDS011;60419;48.880;18.036;2023-07-31T04:25:59;4.13;;;2.50;;
72427;SDS011;60419;48.880;18.036;2023-07-31T04:28:45;5.95;;;2.88;;
72427;SDS011;60419;48.880;18.036;2023-07-31T04:31:30;4.05;;;2.42;;
72427;SDS011;60419;48.880;18.036;2023-07-31T04:34:16;6.78;;;3.40;;
72427;SDS011;60419;48.880;18.036;2023-07-31T04:37:01;9.43;;;3.25;;
72427;SDS011;60419;48.880;18.036;2023-07-31T04:39:46;4.95;;;3.05;;
72427;SDS011;60419;48.880;18.036;2023-07-31T04:42:32;6.88;;;3.13;;
72427;SDS011;60419;48.880;18.036;2023-07-31T04:45:17;6.25;;;3.00;;
72427;SDS011;60419;48.880;18.036;2023-07-31T04:48:03;5.13;;;3.00;;
72427;SDS011;60419;48.880;18.036;2023-07-31T04:50:48;8.85;;;2.95;;
72427;SDS011;60419;48.880;18.036;2023-07-31T04:53:34;6.63;;;2.75;;
72427;SDS011;60419;48.880;18.036;2023-07-31T04:56:19;8.25;;;3.78;;
72427;SDS011;60419;48.880;18.036;2023-07-31T04:59:05;7.50;;;3.05;;
72427;SDS011;60419;48.880;18.036;2023-07-31T05:01:50;5.97;;;3.38;;
72427;SDS011;60419;48.880;18.036;2023-07-31T05:04:35;4.03;;;2.70;;
72427;SDS011;60419;48.880;18.036;2023-07-31T05:07:21;6.32;;;2.90;;
72427;SDS011;60419;48.880;18.036;2023-07-31T05:10:06;6.38;;;3.08;;
72427;SDS011;60419;48.880;18.036;2023-07-31T05:12:52;5.70;;;3.10;;
72427;SDS011;60419;48.880;18.036;2023-07-31T05:15:37;6.07;;;2.63;;
72427;SDS011;60419;48.880;18.036;2023-07-31T05:18:23;7.53;;;2.83;;
72427;SDS011;60419;48.880;18.036;2023-07-31T05:21:08;8.18;;;3.22;;
72427;SDS011;60419;48.880;18.036;2023-07-31T05:23:54;6.95;;;3.13;;
72427;SDS011;60419;48.880;18.036;2023-07-31T05:26:39;6.38;;;2.97;;
72427;SDS011;60419;48.880;18.036;2023-07-31T05:29:24;6.28;;;2.58;;
72427;SDS011;60419;48.880;18.036;2023-07-31T05:32:10;6.00;;;2.78;;
72427;SDS011;60419;48.880;18.036;2023-07-31T05:34:55;5.43;;;2.65;;
72427;SDS011;60419;48.880;18.036;2023-07-31T05:37:41;5.30;;;2.42;;
72427;SDS011;60419;48.880;18.036;2023-07-31T05:40:27;5.93;;;2.38;;
72427;SDS011;60419;48.880;18.036;2023-07-31T05:43:12;4.32;;;2.05;;
72427;SDS011;60419;48.880;18.036;2023-07-31T05:45:58;4.32;;;2.10;;
72427;SDS011;60419;48.880;18.036;2023-07-31T05:48:43;4.15;;;2.00;;
72427;SDS011;60419;48.880;18.036;2023-07-31T05:51:28;4.97;;;2.00;;
72427;SDS011;60419;48.880;18.036;2023-07-31T05:54:14;4.43;;;2.30;;
72427;SDS011;60419;48.880;18.036;2023-07-31T05:56:59;4.15;;;2.00;;
72427;SDS011;60419;48.880;18.036;2023-07-31T05:59:44;5.03;;;2.50;;
72427;SDS011;60419;48.880;18.036;2023-07-31T06:02:30;4.07;;;2.00;;
72427;SDS011;60419;48.880;18.036;2023-07-31T06:05:18;2.95;;;1.73;;
72427;SDS011;60419;48.880;18.036;2023-07-31T06:08:03;5.85;;;1.70;;
72427;SDS011;60419;48.880;18.036;2023-07-31T06:10:49;3.95;;;1.80;;
72427;SDS011;60419;48.880;18.036;2023-07-31T06:13:34;3.03;;;1.50;;
72427;SDS011;60419;48.880;18.036;2023-07-31T06:16:20;6.22;;;1.90;;
72427;SDS011;60419;48.880;18.036;2023-07-31T06:19:06;6.03;;;1.83;;
72427;SDS011;60419;48.880;18.036;2023-07-31T06:21:52;3.88;;;1.85;;
72427;SDS011;60419;48.880;18.036;2023-07-31T06:24:37;4.93;;;1.60;;
72427;SDS011;60419;48.880;18.036;2023-07-31T06:27:23;4.47;;;2.33;;
72427;SDS011;60419;48.880;18.036;2023-07-31T06:30:08;4.85;;;1.85;;
72427;SDS011;60419;48.880;18.036;2023-07-31T06:32:54;4.85;;;1.70;;
72427;SDS011;60419;48.880;18.036;2023-07-31T06:35:39;10.02;;;4.03;;
72427;SDS011;60419;48.880;18.036;2023-07-31T06:38:25;3.38;;;1.65;;
72427;SDS011;60419;48.880;18.036;2023-07-31T06:41:11;4.38;;;1.58;;
72427;SDS011;60419;48.880;18.036;2023-07-31T06:43:56;4.70;;;1.42;;
72427;SDS011;60419;48.880;18.036;2023-07-31T06:46:42;3.30;;;1.67;;
72427;SDS011;60419;48.880;18.036;2023-07-31T06:49:27;6.03;;;1.58;;
72427;SDS011;60419;48.880;18.036;2023-07-31T06:52:13;3.15;;;1.45;;
72427;SDS011;60419;48.880;18.036;2023-07-31T06:55:17;3.47;;;1.85;;
72427;SDS011;60419;48.880;18.036;2023-07-31T06:58:06;3.85;;;1.52;;
72427;SDS011;60419;48.880;18.036;2023-07-31T07:00:52;9.50;;;1.80;;
72427;SDS011;60419;48.880;18.036;2023-07-31T07:03:37;4.18;;;1.60;;
72427;SDS011;60419;48.880;18.036;2023-07-31T07:06:23;3.65;;;1.73;;
72427;SDS011;60419;48.880;18.036;2023-07-31T07:09:08;4.25;;;1.60;;
72427;SDS011;60419;48.880;18.036;2023-07-31T07:11:53;4.32;;;1.85;;
72427;SDS011;60419;48.880;18.036;2023-07-31T07:14:39;3.75;;;1.80;;
72427;SDS011;60419;48.880;18.036;2023-07-31T07:17:25;4.28;;;1.52;;
72427;SDS011;60419;48.880;18.036;2023-07-31T07:20:11;4.28;;;1.40;;
72427;SDS011;60419;48.880;18.036;2023-07-31T07:22:57;4.30;;;1.60;;
72427;SDS011;60419;48.880;18.036;2023-07-31T07:25:43;3.15;;;1.92;;
72427;SDS011;60419;48.880;18.036;2023-07-31T07:28:30;4.30;;;1.80;;
72427;SDS011;60419;48.880;18.036;2023-07-31T07:31:15;2.75;;;1.50;;
72427;SDS011;60419;48.880;18.036;2023-07-31T07:34:00;3.20;;;1.77;;
72427;SDS011;60419;48.880;18.036;2023-07-31T07:36:47;3.47;;;1.70;;
72427;SDS011;60419;48.880;18.036;2023-07-31T07:39:32;6.38;;;2.00;;
72427;SDS011;60419;48.880;18.036;2023-07-31T07:42:18;3.30;;;1.70;;
72427;SDS011;60419;48.880;18.036;2023-07-31T07:45:03;3.75;;;1.88;;
72427;SDS011;60419;48.880;18.036;2023-07-31T07:47:49;4.07;;;1.83;;
72427;SDS011;60419;48.880;18.036;2023-07-31T07:50:34;3.42;;;1.70;;
72427;SDS011;60419;48.880;18.036;2023-07-31T07:53:20;5.00;;;1.85;;
72427;SDS011;60419;48.880;18.036;2023-07-31T07:56:06;7.07;;;1.80;;
72427;SDS011;60419;48.880;18.036;2023-07-31T07:58:51;6.32;;;1.65;;
72427;SDS011;60419;48.880;18.036;2023-07-31T08:01:37;4.15;;;1.73;;
72427;SDS011;60419;48.880;18.036;2023-07-31T08:04:22;4.22;;;1.88;;
72427;SDS011;60419;48.880;18.036;2023-07-31T08:07:07;3.70;;;1.88;;
72427;SDS011;60419;48.880;18.036;2023-07-31T08:09:55;3.75;;;1.70;;
72427;SDS011;60419;48.880;18.036;2023-07-31T08:12:40;4.55;;;1.80;;
72427;SDS011;60419;48.880;18.036;2023-07-31T08:15:26;3.75;;;1.85;;
72427;SDS011;60419;48.880;18.036;2023-07-31T08:18:11;3.55;;;1.70;;
72427;SDS011;60419;48.880;18.036;2023-07-31T08:20:57;8.32;;;2.10;;
72427;SDS011;60419;48.880;18.036;2023-07-31T08:23:42;6.05;;;1.92;;
72427;SDS011;60419;48.880;18.036;2023-07-31T08:26:27;3.78;;;1.73;;
72427;SDS011;60419;48.880;18.036;2023-07-31T08:29:13;4.35;;;1.67;;
72427;SDS011;60419;48.880;18.036;2023-07-31T08:31:58;4.57;;;1.60;;
72427;SDS011;60419;48.880;18.036;2023-07-31T08:34:43;5.03;;;1.60;;
72427;SDS011;60419;48.880;18.036;2023-07-31T08:37:29;3.05;;;1.70;;
72427;SDS011;60419;48.880;18.036;2023-07-31T08:40:14;3.78;;;1.58;;
72427;SDS011;60419;48.880;18.036;2023-07-31T08:43:00;3.22;;;1.63;;
72427;SDS011;60419;48.880;18.036;2023-07-31T08:45:47;5.10;;;1.77;;
72427;SDS011;60419;48.880;18.036;2023-07-31T08:48:33;3.75;;;1.63;;
72427;SDS011;60419;48.880;18.036;2023-07-31T08:51:20;3.95;;;1.83;;
72427;SDS011;60419;48.880;18.036;2023-07-31T08:54:06;3.70;;;1.60;;
72427;SDS011;60419;48.880;18.036;2023-07-31T08:56:51;4.05;;;1.50;;
72427;SDS011;60419;48.880;18.036;2023-07-31T08:59:38;3.95;;;1.60;;
72427;SDS011;60419;48.880;18.036;2023-07-31T09:02:24;3.83;;;1.40;;
72427;SDS011;60419;48.880;18.036;2023-07-31T09:05:15;4.85;;;1.80;;
72427;SDS011;60419;48.880;18.036;2023-07-31T09:08:02;5.05;;;2.03;;
72427;SDS011;60419;48.880;18.036;2023-07-31T09:10:49;4.50;;;1.77;;
72427;SDS011;60419;48.880;18.036;2023-07-31T09:13:38;3.15;;;1.40;;
72427;SDS011;60419;48.880;18.036;2023-07-31T09:16:28;3.38;;;1.30;;
72427;SDS011;60419;48.880;18.036;2023-07-31T09:19:22;3.50;;;1.50;;
72427;SDS011;60419;48.880;18.036;2023-07-31T09:22:11;5.78;;;1.50;;
72427;SDS011;60419;48.880;18.036;2023-07-31T09:24:56;4.78;;;1.85;;
72427;SDS011;60419;48.880;18.036;2023-07-31T09:27:59;2.90;;;1.40;;
72427;SDS011;60419;48.880;18.036;2023-07-31T09:30:51;3.47;;;1.40;;
72427;SDS011;60419;48.880;18.036;2023-07-31T09:33:39;4.95;;;1.75;;
72427;SDS011;60419;48.880;18.036;2023-07-31T09:36:41;2.75;;;1.55;;
72427;SDS011;60419;48.880;18.036;2023-07-31T09:39:27;3.15;;;1.40;;
72427;SDS011;60419;48.880;18.036;2023-07-31T09:42:15;4.35;;;1.63;;
72427;SDS011;60419;48.880;18.036;2023-07-31T09:45:10;3.30;;;1.40;;
72427;SDS011;60419;48.880;18.036;2023-07-31T09:47:56;3.47;;;1.42;;
72427;SDS011;60419;48.880;18.036;2023-07-31T09:50:42;3.92;;;1.60;;
72427;SDS011;60419;48.880;18.036;2023-07-31T09:53:29;2.83;;;1.27;;
72427;SDS011;60419;48.880;18.036;2023-07-31T09:56:18;3.78;;;1.50;;
72427;SDS011;60419;48.880;18.036;2023-07-31T09:59:06;3.15;;;1.27;;
72427;SDS011;60419;48.880;18.036;2023-07-31T10:01:53;4.80;;;1.55;;
72427;SDS011;60419;48.880;18.036;2023-07-31T10:04:41;3.58;;;1.20;;
72427;SDS011;60419;48.880;18.036;2023-07-31T10:07:30;2.90;;;1.40;;
72427;SDS011;60419;48.880;18.036;2023-07-31T10:10:16;3.22;;;1.40;;
72427;SDS011;60419;48.880;18.036;2023-07-31T10:13:05;3.75;;;1.40;;
72427;SDS011;60419;48.880;18.036;2023-07-31T10:15:51;3.00;;;1.30;;
72427;SDS011;60419;48.880;18.036;2023-07-31T10:18:37;4.10;;;1.30;;
72427;SDS011;60419;48.880;18.036;2023-07-31T10:21:25;4.30;;;1.77;;
72427;SDS011;60419;48.880;18.036;2023-07-31T10:24:11;4.22;;;1.20;;
72427;SDS011;60419;48.880;18.036;2023-07-31T10:26:58;3.83;;;1.33;;
72427;SDS011;60419;48.880;18.036;2023-07-31T10:29:45;4.13;;;1.42;;
72427;SDS011;60419;48.880;18.036;2023-07-31T10:32:32;2.75;;;1.15;;
72427;SDS011;60419;48.880;18.036;2023-07-31T10:35:19;2.40;;;0.98;;
72427;SDS011;60419;48.880;18.036;2023-07-31T10:38:10;2.53;;;1.20;;
72427;SDS011;60419;48.880;18.036;2023-07-31T10:41:07;5.20;;;1.30;;
72427;SDS011;60419;48.880;18.036;2023-07-31T10:44:00;3.28;;;1.60;;
72427;SDS011;60419;48.880;18.036;2023-07-31T10:46:46;4.38;;;1.30;;
72427;SDS011;60419;48.880;18.036;2023-07-31T10:49:31;2.95;;;1.17;;
72427;SDS011;60419;48.880;18.036;2023-07-31T10:52:20;2.92;;;1.00;;
72427;SDS011;60419;48.880;18.036;2023-07-31T10:58:11;3.25;;;1.20;;
72427;SDS011;60419;48.880;18.036;2023-07-31T11:00:59;4.50;;;1.10;;
72427;SDS011;60419;48.880;18.036;2023-07-31T11:06:33;4.93;;;1.17;;
72427;SDS011;60419;48.880;18.036;2023-07-31T11:09:21;2.88;;;1.00;;
72427;SDS011;60419;48.880;18.036;2023-07-31T11:12:07;3.17;;;1.10;;
72427;SDS011;60419;48.880;18.036;2023-07-31T11:14:56;4.07;;;1.05;;
72427;SDS011;60419;48.880;18.036;2023-07-31T11:17:41;3.85;;;1.10;;
72427;SDS011;60419;48.880;18.036;2023-07-31T11:20:28;3.53;;;1.05;;
72427;SDS011;60419;48.880;18.036;2023-07-31T11:23:16;4.95;;;1.02;;
72427;SDS011;60419;48.880;18.036;2023-07-31T11:26:02;3.75;;;1.10;;
72427;SDS011;60419;48.880;18.036;2023-07-31T11:28:48;2.45;;;0.90;;
72427;SDS011;60419;48.880;18.036;2023-07-31T11:31:34;3.22;;;1.23;;
72427;SDS011;60419;48.880;18.036;2023-07-31T11:34:27;3.13;;;1.13;;
72427;SDS011;60419;48.880;18.036;2023-07-31T11:37:12;4.60;;;1.02;;
72427;SDS011;60419;48.880;18.036;2023-07-31T11:40:01;2.97;;;0.98;;
72427;SDS011;60419;48.880;18.036;2023-07-31T11:42:47;2.05;;;0.90;;
72427;SDS011;60419;48.880;18.036;2023-07-31T11:45:32;3.17;;;1.20;;
72427;SDS011;60419;48.880;18.036;2023-07-31T11:48:27;3.45;;;1.20;;
72427;SDS011;60419;48.880;18.036;2023-07-31T11:51:14;5.65;;;1.35;;
72427;SDS011;60419;48.880;18.036;2023-07-31T11:54:00;2.97;;;1.00;;
72427;SDS011;60419;48.880;18.036;2023-07-31T11:56:47;4.10;;;1.48;;
72427;SDS011;60419;48.880;18.036;2023-07-31T11:59:32;3.78;;;1.23;;
72427;SDS011;60419;48.880;18.036;2023-07-31T12:02:18;2.28;;;0.93;;
72427;SDS011;60419;48.880;18.036;2023-07-31T12:05:05;4.05;;;1.73;;
72427;SDS011;60419;48.880;18.036;2023-07-31T12:07:53;6.35;;;1.30;;
72427;SDS011;60419;48.880;18.036;2023-07-31T12:10:39;2.33;;;1.05;;
72427;SDS011;60419;48.880;18.036;2023-07-31T12:13:26;2.88;;;1.00;;
72427;SDS011;60419;48.880;18.036;2023-07-31T12:16:11;3.42;;;1.40;;
72427;SDS011;60419;48.880;18.036;2023-07-31T12:18:57;2.60;;;1.00;;
72427;SDS011;60419;48.880;18.036;2023-07-31T12:21:42;3.47;;;1.10;;
72427;SDS011;60419;48.880;18.036;2023-07-31T12:24:28;3.53;;;1.38;;
72427;SDS011;60419;48.880;18.036;2023-07-31T12:27:14;2.10;;;1.00;;
72427;SDS011;60419;48.880;18.036;2023-07-31T12:30:00;2.78;;;1.10;;
72427;SDS011;60419;48.880;18.036;2023-07-31T12:32:45;2.72;;;1.00;;
72427;SDS011;60419;48.880;18.036;2023-07-31T12:35:34;6.03;;;1.60;;
72427;SDS011;60419;48.880;18.036;2023-07-31T12:38:21;3.70;;;0.93;;
72427;SDS011;60419;48.880;18.036;2023-07-31T12:41:07;3.75;;;1.30;;
72427;SDS011;60419;48.880;18.036;2023-07-31T12:43:53;3.75;;;1.10;;
72427;SDS011;60419;48.880;18.036;2023-07-31T12:46:38;2.65;;;1.00;;
72427;SDS011;60419;48.880;18.036;2023-07-31T12:49:23;2.33;;;1.00;;
72427;SDS011;60419;48.880;18.036;2023-07-31T12:52:09;3.40;;;0.98;;
72427;SDS011;60419;48.880;18.036;2023-07-31T12:54:54;4.88;;;1.30;;
72427;SDS011;60419;48.880;18.036;2023-07-31T12:57:40;2.75;;;1.20;;
72427;SDS011;60419;48.880;18.036;2023-07-31T13:00:26;3.17;;;1.20;;
72427;SDS011;60419;48.880;18.036;2023-07-31T13:03:12;2.75;;;1.20;;
72427;SDS011;60419;48.880;18.036;2023-07-31T13:05:57;3.97;;;1.20;;
72427;SDS011;60419;48.880;18.036;2023-07-31T13:08:43;4.72;;;1.30;;
72427;SDS011;60419;48.880;18.036;2023-07-31T13:11:28;4.30;;;1.10;;
72427;SDS011;60419;48.880;18.036;2023-07-31T13:14:13;6.22;;;1.50;;
72427;SDS011;60419;48.880;18.036;2023-07-31T13:16:59;5.22;;;1.58;;
72427;SDS011;60419;48.880;18.036;2023-07-31T13:19:44;3.60;;;1.25;;
72427;SDS011;60419;48.880;18.036;2023-07-31T13:22:30;3.70;;;1.20;;
72427;SDS011;60419;48.880;18.036;2023-07-31T13:25:15;3.63;;;1.42;;
72427;SDS011;60419;48.880;18.036;2023-07-31T13:28:00;4.30;;;1.30;;
72427;SDS011;60419;48.880;18.036;2023-07-31T13:30:46;3.08;;;1.17;;
72427;SDS011;60419;48.880;18.036;2023-07-31T13:33:31;4.35;;;1.20;;
72427;SDS011;60419;48.880;18.036;2023-07-31T13:36:17;3.92;;;1.10;;
72427;SDS011;60419;48.880;18.036;2023-07-31T13:39:02;3.03;;;1.20;;
72427;SDS011;60419;48.880;18.036;2023-07-31T13:41:48;4.05;;;1.20;;
72427;SDS011;60419;48.880;18.036;2023-07-31T13:44:36;4.63;;;1.30;;
72427;SDS011;60419;48.880;18.036;2023-07-31T13:47:22;2.60;;;1.00;;
72427;SDS011;60419;48.880;18.036;2023-07-31T13:50:07;3.70;;;1.10;;
72427;SDS011;60419;48.880;18.036;2023-07-31T13:52:53;3.03;;;1.15;;
72427;SDS011;60419;48.880;18.036;2023-07-31T13:55:38;2.88;;;1.08;;
72427;SDS011;60419;48.880;18.036;2023-07-31T13:58:24;3.85;;;1.10;;
72427;SDS011;60419;48.880;18.036;2023-07-31T14:01:09;3.45;;;1.20;;
72427;SDS011;60419;48.880;18.036;2023-07-31T14:03:55;4.10;;;1.20;;
72427;SDS011;60419;48.880;18.036;2023-07-31T14:06:40;3.33;;;1.20;;
72427;SDS011;60419;48.880;18.036;2023-07-31T14:09:26;4.45;;;1.33;;
72427;SDS011;60419;48.880;18.036;2023-07-31T14:12:13;3.22;;;1.20;;
72427;SDS011;60419;48.880;18.036;2023-07-31T14:14:58;3.45;;;1.15;;
72427;SDS011;60419;48.880;18.036;2023-07-31T14:17:44;4.18;;;1.10;;
72427;SDS011;60419;48.880;18.036;2023-07-31T14:20:29;4.32;;;1.13;;
72427;SDS011;60419;48.880;18.036;2023-07-31T14:23:15;3.40;;;1.20;;
72427;SDS011;60419;48.880;18.036;2023-07-31T14:26:00;5.40;;;1.30;;
72427;SDS011;60419;48.880;18.036;2023-07-31T14:28:46;3.08;;;1.13;;
72427;SDS011;60419;48.880;18.036;2023-07-31T14:31:31;3.33;;;1.00;;
72427;SDS011;60419;48.880;18.036;2023-07-31T14:34:17;3.58;;;0.95;;
72427;SDS011;60419;48.880;18.036;2023-07-31T14:37:02;3.58;;;1.20;;
72427;SDS011;60419;48.880;18.036;2023-07-31T14:39:48;2.97;;;1.08;;
72427;SDS011;60419;48.880;18.036;2023-07-31T14:42:34;2.88;;;1.10;;
72427;SDS011;60419;48.880;18.036;2023-07-31T14:45:21;4.10;;;1.20;;
72427;SDS011;60419;48.880;18.036;2023-07-31T14:48:06;2.95;;;1.10;;
72427;SDS011;60419;48.880;18.036;2023-07-31T14:50:51;3.00;;;1.05;;
72427;SDS011;60419;48.880;18.036;2023-07-31T14:53:37;3.80;;;1.27;;
72427;SDS011;60419;48.880;18.036;2023-07-31T14:56:22;3.35;;;1.27;;
72427;SDS011;60419;48.880;18.036;2023-07-31T14:59:08;3.85;;;1.30;;
72427;SDS011;60419;48.880;18.036;2023-07-31T15:01:54;3.63;;;1.13;;
72427;SDS011;60419;48.880;18.036;2023-07-31T15:04:40;2.60;;;1.00;;
72427;SDS011;60419;48.880;18.036;2023-07-31T15:07:25;2.33;;;1.10;;
72427;SDS011;60419;48.880;18.036;2023-07-31T15:10:11;2.75;;;0.93;;
72427;SDS011;60419;48.880;18.036;2023-07-31T15:12:56;3.28;;;1.20;;
72427;SDS011;60419;48.880;18.036;2023-07-31T15:15:41;2.83;;;1.20;;
72427;SDS011;60419;48.880;18.036;2023-07-31T15:18:27;3.42;;;1.25;;
72427;SDS011;60419;48.880;18.036;2023-07-31T15:21:12;3.53;;;1.20;;
72427;SDS011;60419;48.880;18.036;2023-07-31T15:23:58;4.40;;;1.10;;
72427;SDS011;60419;48.880;18.036;2023-07-31T15:26:43;3.33;;;1.20;;
72427;SDS011;60419;48.880;18.036;2023-07-31T15:29:29;2.85;;;1.15;;
72427;SDS011;60419;48.880;18.036;2023-07-31T15:32:15;3.63;;;1.10;;
72427;SDS011;60419;48.880;18.036;2023-07-31T15:35:00;2.13;;;0.90;;
72427;SDS011;60419;48.880;18.036;2023-07-31T15:37:46;2.70;;;1.10;;
72427;SDS011;60419;48.880;18.036;2023-07-31T15:40:31;3.47;;;1.00;;
72427;SDS011;60419;48.880;18.036;2023-07-31T15:43:16;5.35;;;1.20;;
72427;SDS011;60419;48.880;18.036;2023-07-31T15:46:04;2.55;;;1.08;;
72427;SDS011;60419;48.880;18.036;2023-07-31T15:48:49;5.93;;;1.20;;
72427;SDS011;60419;48.880;18.036;2023-07-31T15:51:35;3.22;;;1.33;;
72427;SDS011;60419;48.880;18.036;2023-07-31T15:54:20;3.42;;;1.00;;
72427;SDS011;60419;48.880;18.036;2023-07-31T15:57:05;2.60;;;0.95;;
72427;SDS011;60419;48.880;18.036;2023-07-31T15:59:51;2.25;;;0.93;;
72427;SDS011;60419;48.880;18.036;2023-07-31T16:02:36;3.83;;;1.20;;
72427;SDS011;60419;48.880;18.036;2023-07-31T16:05:22;3.00;;;1.20;;
72427;SDS011;60419;48.880;18.036;2023-07-31T16:08:07;3.92;;;1.27;;
72427;SDS011;60419;48.880;18.036;2023-07-31T16:10:53;3.83;;;1.20;;
72427;SDS011;60419;48.880;18.036;2023-07-31T16:13:38;4.40;;;1.20;;
72427;SDS011;60419;48.880;18.036;2023-07-31T16:16:24;3.03;;;1.23;;
72427;SDS011;60419;48.880;18.036;2023-07-31T16:19:12;2.45;;;1.02;;
72427;SDS011;60419;48.880;18.036;2023-07-31T16:21:57;2.75;;;1.00;;
72427;SDS011;60419;48.880;18.036;2023-07-31T16:24:43;3.65;;;1.25;;
72427;SDS011;60419;48.880;18.036;2023-07-31T16:27:28;3.28;;;1.00;;
72427;SDS011;60419;48.880;18.036;2023-07-31T16:30:13;3.42;;;1.10;;
72427;SDS011;60419;48.880;18.036;2023-07-31T16:32:59;2.42;;;1.02;;
72427;SDS011;60419;48.880;18.036;2023-07-31T16:35:44;3.05;;;1.13;;
72427;SDS011;60419;48.880;18.036;2023-07-31T16:38:30;4.68;;;1.20;;
72427;SDS011;60419;48.880;18.036;2023-07-31T16:41:15;2.63;;;1.08;;